Latest Weather Observations for Launceston Airport

IDT60801

Issued at 4:32 am EDT Sunday 4 December 2016 (issued every 30 minutes, with the page automatically refreshed every 10 minutes)

About weather observations | Map of weather stations | Latest weather observations for TAS | Other Formats
Station Details ID: 091311 Name: LAUNCESTON AIRPORT Lat: -41.55 Lon: 147.21 Height: 166.9 m
Data from the previous 72 hours. | See also: Recent months at Launceston Airport
Date/Time
EDT
Temp
°C
App
Temp
°C
Dew
Point
°C
Rel
Hum
%
Delta-T
°C
Wind Press
QNH
hPa
Press
MSL
hPa
Rain since
9am
mm
Dir  Spd
km/h
Gust
km/h
Spd
kts
Gust
kts
04/04:00am 5.7 4.4 4.0 89 0.7 CALM 0 0 0 0 1013.9 1013.7 0.0
04/03:30am 6.4 5.2 4.7 89 0.7 CALM 0 6 0 3 1013.9 1013.7 0.0
04/03:00am 6.5 4.0 4.7 88 0.8 S 7 7 4 4 1014.0 1013.8 0.0
04/02:30am 7.4 5.1 5.0 85 1.1 W 6 7 3 4 1014.3 1014.1 0.0
04/02:00am 7.9 6.9 5.4 84 1.1 CALM 0 0 0 0 1014.5 1014.3 0.0
04/01:30am 9.2 7.2 6.3 82 1.4 WNW 6 7 3 4 1014.8 1014.6 0.0
04/01:00am 8.5 6.0 6.6 88 0.9 N 9 11 5 6 1015.0 1014.8 0.0
04/12:30am 8.4 5.8 6.0 85 1.1 N 9 11 5 6 1015.3 1015.1 0.0
04/12:00am 8.5 5.5 6.0 84 1.1 N 11 15 6 8 1015.5 1015.3 0.0
 
Date/Time
EDT
Temp
°C
App
Temp
°C
Dew
Point
°C
Rel
Hum
%
Delta-T
°C
Wind Press
QNH
hPa
Press
MSL
hPa
Rain since
9am
mm
Dir  Spd
km/h
Gust
km/h
Spd
kts
Gust
kts
03/11:30pm 8.8 5.1 6.1 83 1.2 N 15 17 8 9 1015.3 1015.1 0.0
03/11:00pm 9.4 5.3 6.1 80 1.5 N 17 19 9 10 1015.3 1015.1 0.0
03/10:30pm 8.4 4.9 5.5 82 1.3 N 13 15 7 8 1015.4 1015.2 0.0
03/10:00pm 9.8 6.8 6.2 78 1.7 N 11 17 6 9 1015.2 1015.0 0.0
03/09:30pm 10.5 6.5 6.8 78 1.8 N 17 24 9 13 1015.2 1015.0 0.0
03/09:00pm 11.4 7.1 7.1 75 2.1 NNW 19 24 10 13 1014.9 1014.7 0.0
03/08:30pm 12.1 7.3 7.2 72 2.4 NNW 22 30 12 16 1014.6 1014.4 0.0
03/08:00pm 13.0 8.2 7.2 68 2.8 NNW 22 30 12 16 1014.3 1014.1 0.0
03/07:30pm 13.9 8.3 7.0 63 3.4 NNW 26 33 14 18 1014.1 1013.9 0.0
03/07:00pm 14.7 8.0 7.3 61 3.7 NNW 32 41 17 22 1013.6 1013.3 0.0
03/06:30pm 15.6 9.4 7.9 60 3.9 NNW 30 39 16 21 1013.3 1013.0 0.0
03/06:00pm 16.1 9.8 7.3 56 4.4 N 30 39 16 21 1012.9 1012.6 0.0
03/05:30pm 17.0 11.3 8.4 57 4.4 NNW 28 35 15 19 1012.9 1012.6 0.0
03/05:00pm 17.3 10.9 7.1 51 5.1 NNW 30 43 16 23 1013.0 1012.7 0.0
03/04:30pm 17.3 10.7 5.9 47 5.6 NNW 30 37 16 20 1013.0 1012.7 0.0
03/04:00pm 17.8 11.8 7.2 50 5.4 NNW 28 35 15 19 1013.0 1012.7 0.0
03/03:30pm 17.9 11.7 6.1 46 5.8 NNW 28 35 15 19 1013.3 1013.0 0.0
03/03:00pm 16.4 10.4 5.4 48 5.3 NNW 26 33 14 18 1013.6 1013.3 0.0
03/02:30pm 18.0 12.9 5.9 45 6.0 NNW 22 32 12 17 1013.6 1013.3 0.0
03/02:00pm 17.7 11.9 6.3 47 5.7 NNW 26 32 14 17 1013.9 1013.7 0.0
03/01:30pm 16.4 11.6 5.4 48 5.3 NNW 20 30 11 16 1014.1 1013.9 0.0
03/01:00pm 17.2 12.5 6.1 48 5.5 NNW 20 28 11 15 1014.1 1013.9 0.0
03/12:30pm 16.3 11.8 4.0 44 5.8 NNE 17 24 9 13 1014.2 1014.0 0.0
03/12:00pm 15.5 10.9 3.9 46 5.4 N 17 28 9 15 1014.3 1014.1 0.0
03/11:30am 16.3 12.2 4.4 45 5.6 NNW 15 26 8 14 1014.3 1014.1 0.0
03/11:00am 16.2 12.5 4.6 46 5.5 NNE 13 22 7 12 1014.3 1014.1 0.0
03/10:30am 14.8 10.2 3.6 47 5.1 N 17 22 9 12 1014.4 1014.2 0.0
03/10:00am 14.1 9.2 4.1 51 4.6 N 19 28 10 15 1014.5 1014.3 0.0
03/09:30am 13.4 9.2 4.0 53 4.3 N 15 20 8 11 1014.5 1014.3 0.0
03/09:00am 13.1 10.1 6.0 62 3.4 NNW 11 15 6 8 1014.2 1014.0 0.0
03/08:30am 11.6 9.2 5.3 65 2.9 N 7 13 4 7 1014.1 1013.9 0.0
03/08:00am 10.0 7.9 5.6 74 2.0 N 6 9 3 5 1013.9 1013.7 0.0
03/07:30am 8.1 6.4 6.1 87 0.9 NNW 4 7 2 4 1014.0 1013.8 0.0
03/07:00am 7.0 4.6 5.2 88 0.8 N 7 11 4 6 1014.2 1014.0 0.0
03/06:30am 5.6 1.8 4.1 90 0.6 NNW 13 15 7 8 1014.0 1013.8 0.0
03/06:00am 4.9 1.8 3.6 91 0.5 NNE 9 13 5 7 1013.6 1013.3 0.0
03/05:30am 4.9 1.4 3.4 90 0.6 NNW 11 15 6 8 1013.4 1013.1 0.0
03/05:00am 3.7 -0.5 1.4 85 0.9 NW 13 13 7 7 1013.2 1012.9 0.0
03/04:30am 4.8 1.2 2.8 87 0.8 NW 11 13 6 7 1013.2 1012.9 0.0
03/04:00am 4.4 -0.1 2.1 85 0.9 NNW 15 17 8 9 1013.2 1012.9 0.0
03/03:30am 5.5 1.5 2.8 83 1.1 NW 13 15 7 8 1013.0 1012.7 0.0
03/03:00am 4.6 0.3 1.3 79 1.3 NNW 13 17 7 9 1012.9 1012.6 0.0
03/02:30am 5.5 1.3 1.8 77 1.5 NNW 13 17 7 9 1013.0 1012.7 0.0
03/02:00am 9.2 3.7 2.1 61 3.0 NW 20 28 11 15 1013.0 1012.7 0.0
03/01:30am 9.4 4.5 2.3 61 3.0 NW 17 26 9 14 1012.9 1012.6 0.0
03/01:00am 8.5 4.3 1.9 63 2.8 NNW 13 22 7 12 1013.0 1012.7 0.0
03/12:30am 10.0 4.4 1.4 55 3.6 WNW 20 28 11 15 1013.0 1012.7 0.0
03/12:00am 10.2 4.3 1.6 55 3.6 WNW 22 30 12 16 1012.9 1012.6 0.0
 
Date/Time
EDT
Temp
°C
App
Temp
°C
Dew
Point
°C
Rel
Hum
%
Delta-T
°C
Wind Press
QNH
hPa
Press
MSL
hPa
Rain since
9am
mm
Dir  Spd
km/h
Gust
km/h
Spd
kts
Gust
kts
02/11:30pm 10.6 5.2 1.2 52 3.9 WNW 19 26 10 14 1012.8 1012.5 0.0
02/11:00pm 11.0 5.0 1.0 50 4.2 WNW 22 30 12 16 1012.3 1012.0 0.0
02/10:30pm 10.6 5.9 0.9 51 4.0 WNW 15 30 8 16 1012.2 1011.9 0.0
02/10:00pm 11.6 4.8 1.0 48 4.5 WNW 26 37 14 20 1011.8 1011.6 0.0
02/09:36pm 12.4 5.1 0.2 43 5.1 WNW 28 50 15 27 1011.3 1011.1 0.0
02/09:30pm 12.2 5.3 0.0 43 5.1 WNW 26 37 14 20 1011.3 1011.1 0.0
02/09:00pm 12.7 5.3 -0.5 40 5.4 NW 28 39 15 21 1010.5 1010.3 0.0
02/08:30pm 13.4 6.8 -0.6 38 5.8 WNW 24 35 13 19 1009.9 1009.7 0.0
02/08:00pm 14.6 6.9 -0.3 36 6.3 WNW 30 39 16 21 1009.5 1009.3 0.0
02/07:30pm 15.9 8.1 -0.8 32 7.1 WNW 30 39 16 21 1008.9 1008.7 0.0
02/07:00pm 16.9 9.4 -1.7 28 7.8 WNW 28 39 15 21 1008.4 1008.1 0.0
02/06:30pm 17.5 9.1 -1.2 28 8.0 WNW 33 46 18 25 1008.0 1007.7 0.0
02/06:00pm 18.3 10.0 -0.5 28 8.2 WNW 33 43 18 23 1007.6 1007.3 0.0
02/05:30pm 19.1 11.0 -0.3 27 8.5 WNW 32 43 17 23 1007.2 1006.9 0.0
02/05:00pm 19.6 11.6 -2.1 23 9.3 WNW 30 46 16 25 1006.9 1006.6 0.0
02/04:49pm 19.9 12.0 -1.2 24 9.2 NW 30 43 16 23 1006.8 1006.5 0.0
02/04:30pm 19.2 11.2 5.6 41 6.7 NNW 37 50 20 27 1006.7 1006.4 0.0
02/04:00pm 19.0 10.8 4.7 39 7.0 NNW 37 50 20 27 1006.6 1006.3 0.0
02/03:30pm 20.2 13.3 2.5 31 8.3 NW 28 46 15 25 1006.4 1006.1 0.0
02/03:01pm 20.5 12.4 -0.2 25 9.2 NW 32 50 17 27 1006.3 1006.0 0.0
02/03:00pm 20.9 12.9 0.7 26 9.2 NW 32 44 17 24 1006.3 1006.0 0.0
02/02:30pm 20.2 13.4 0.6 27 8.9 WNW 26 44 14 24 1006.3 1006.0 0.0
02/02:00pm 19.6 13.5 2.9 33 7.9 WNW 24 39 13 21 1006.3 1006.0 0.0
02/01:30pm 19.8 12.0 -0.8 25 9.0 WNW 30 46 16 25 1006.1 1005.8 0.0
02/01:20pm 19.4 11.6 1.4 30 8.2 NW 32 50 17 27 1006.2 1005.9 0.0
02/01:00pm 19.6 11.6 0.6 28 8.6 NW 32 44 17 24 1006.0 1005.7 0.0
02/12:30pm 19.3 12.8 6.4 43 6.5 WNW 30 43 16 23 1005.8 1005.5 0.0
02/12:19pm 18.9 13.0 7.4 47 5.9 W 28 48 15 26 1005.7 1005.4 0.0
02/12:00pm 16.4 11.6 8.9 61 3.9 NNW 24 35 13 19 1005.8 1005.5 0.0
02/11:30am 17.4 13.4 10.3 63 3.8 NNW 22 32 12 17 1005.8 1005.5 0.0
02/11:00am 16.4 11.1 6.8 53 4.8 NW 24 43 13 23 1005.8 1005.5 0.0
02/10:30am 16.5 10.0 8.0 57 4.3 NNW 32 39 17 21 1005.9 1005.6 0.0
02/10:00am 15.4 8.7 7.4 59 4.0 NW 32 41 17 22 1006.0 1005.7 0.0
02/09:30am 14.6 8.7 7.4 62 3.6 NNW 28 43 15 23 1005.8 1005.5 0.0
02/09:00am 14.5 8.6 7.5 63 3.5 NNW 28 37 15 20 1005.5 1005.3 0.0
02/08:30am 14.4 7.3 7.9 65 3.3 NNW 35 44 19 24 1005.4 1005.2 0.0
02/08:00am 13.4 6.5 6.5 63 3.3 NNW 32 39 17 21 1005.2 1005.0 0.0
02/07:30am 12.5 7.2 7.0 69 2.7 NNW 24 32 13 17 1005.1 1004.9 0.0
02/07:00am 11.4 5.8 7.3 76 2.0 NNW 26 33 14 18 1004.7 1004.5 0.0
02/06:30am 10.3 4.8 7.4 82 1.4 NNW 26 35 14 19 1004.3 1004.1 0.0
02/06:00am 9.9 5.1 7.5 85 1.2 N 22 30 12 16 1003.8 1003.6 0.0
02/05:30am 9.9 4.8 7.7 86 1.1 N 24 30 13 16 1003.4 1003.1 0.0
02/05:12am 10.4 5.5 8.3 87 1.0 N 24 32 13 17 1003.4 1003.1 0.0
02/05:00am 10.4 5.5 8.3 87 1.0 N 24 32 13 17 1003.2 1002.9 0.0
02/04:30am 11.0 7.0 9.1 88 1.0 N 20 28 11 15 1003.1 1002.8 0.0
02/04:00am 11.1 6.3 9.0 87 1.1 NNW 24 33 13 18 1003.1 1002.8 0.0
02/03:55am 11.1 5.9 9.0 87 1.1 NNW 26 33 14 18 1003.0 1002.7 0.0
02/03:30am 10.9 5.4 9.2 89 0.9 NNW 28 41 15 22 1002.8 1002.5 0.0
02/03:28am 10.8 5.3 9.1 89 0.9 NNW 28 39 15 21 1002.8 1002.5 0.0
02/03:00am 9.5 5.8 8.1 91 0.7 NNW 17 20 9 11 1002.5 1002.2 0.0
02/02:30am 10.8 7.7 8.9 88 0.9 NNW 15 19 8 10 1002.7 1002.4 0.0
02/02:00am 11.3 8.1 9.9 91 0.7 N 17 20 9 11 1003.1 1002.8 0.0
02/01:30am 11.6 8.5 10.3 92 0.7 NNW 17 20 9 11 1003.4 1003.1 0.0
02/01:00am 11.2 8.0 9.8 91 0.7 NNW 17 19 9 10 1003.4 1003.1 0.0
02/12:30am 12.0 8.9 10.4 90 0.8 NNW 17 20 9 11 1003.8 1003.6 0.0
02/12:00am 12.4 9.1 10.8 90 0.8 NNW 19 22 10 12 1003.9 1003.7 0.0
 
Date/Time
EDT
Temp
°C
App
Temp
°C
Dew
Point
°C
Rel
Hum
%
Delta-T
°C
Wind Press
QNH
hPa
Press
MSL
hPa
Rain since
9am
mm
Dir  Spd
km/h
Gust
km/h
Spd
kts
Gust
kts
01/11:30pm 12.8 9.6 11.2 90 0.8 NNW 19 22 10 12 1004.1 1003.9 0.0
01/11:00pm 13.4 10.7 11.6 89 1.0 N 17 20 9 11 1004.2 1004.0 0.0
01/10:56pm 13.5 10.8 11.7 89 1.0 N 17 20 9 11 1004.3 1004.1 0.0
01/10:45pm 14.0 10.8 11.9 87 1.1 N 20 26 11 14 1004.3 1004.1 0.0
01/10:40pm 14.2 11.1 12.1 87 1.1 N 20 26 11 14 1004.4 1004.2 0.0
01/10:30pm 14.3 11.5 12.5 89 1.0 N 19 24 10 13 1004.3 1004.1 0.0
01/10:00pm 14.7 11.4 12.9 89 1.0 NNW 22 28 12 15 1004.5 1004.3 0.0
01/09:31pm 15.2 10.6 13.4 89 1.0 NNW 30 39 16 21 1004.5 1004.3 0.0
01/09:30pm 15.2 10.6 13.4 89 1.0 NNW 30 39 16 21 1004.5 1004.3 0.0
01/09:00pm 16.0 11.4 13.5 85 1.4 NNW 30 39 16 21 1004.2 1004.0 0.0
01/08:30pm 16.6 13.1 13.5 82 1.8 NNW 24 33 13 18 1003.8 1003.6 0.0
01/08:00pm 18.2 13.9 13.3 73 2.8 NW 28 35 15 19 1003.7 1003.5 0.0
01/07:30pm 18.3 14.9 13.6 74 2.7 NW 24 32 13 17 1003.2 1002.9 0.0
01/07:00pm 19.0 16.4 13.8 72 3.0 NNW 20 26 11 14 1003.2 1002.9 0.0
01/06:30pm 20.3 17.0 14.0 67 3.7 NNW 24 30 13 16 1003.1 1002.8 0.0
01/06:00pm 20.1 17.2 14.0 68 3.6 NNW 22 30 12 16 1003.0 1002.7 0.0
01/05:30pm 22.0 19.6 14.4 62 4.5 NW 20 26 11 14 1003.0 1002.7 0.0
01/05:00pm 21.1 18.4 13.5 62 4.4 NNW 20 28 11 15 1003.3 1003.0 0.0
01/04:30pm 21.7 19.9 13.3 59 4.9 NW 15 26 8 14 1003.5 1003.3 0.0
01/04:00pm 21.5 20.1 14.4 64 4.2 NNW 15 20 8 11 1004.0 1003.8 0.0
01/03:30pm 21.7 20.4 13.6 60 4.7 NNW 13 19 7 10 1004.2 1004.0 0.0
01/03:00pm 21.5 20.8 13.2 59 4.8 NW 9 15 5 8 1004.7 1004.5 0.0
01/02:30pm 21.7 21.3 13.1 58 5.0 NNE 7 13 4 7 1004.9 1004.7 0.0
01/02:00pm 21.1 19.8 12.5 58 4.9 W 11 20 6 11 1005.5 1005.3 0.0
01/01:30pm 21.1 19.6 12.0 56 5.1 W 11 19 6 10 1005.8 1005.5 0.0
01/01:01pm 20.5 19.5 12.2 59 4.7 NNW 9 13 5 7 1006.1 1005.8 0.0
01/01:00pm 20.4 19.4 12.4 60 4.5 NNW 9 15 5 8 1006.2 1005.9 0.0
01/12:50pm 19.7 18.7 12.2 62 4.2 NW 9 15 5 8 1006.4 1006.1 0.0
01/12:30pm 19.7 19.1 11.7 60 4.5 NW 6 11 3 6 1006.6 1006.3 0.0
01/12:00pm 20.0 19.1 12.7 63 4.2 SSE 9 15 5 8 1006.8 1006.5 0.0
01/11:30am 19.0 17.9 11.8 63 4.0 SSW 9 13 5 7 1007.2 1006.9 0.0
01/11:00am 19.4 17.8 12.7 65 3.8 SE 13 17 7 9 1007.4 1007.1 0.0
01/10:30am 18.5 16.5 11.6 64 3.8 S 13 20 7 11 1007.7 1007.5 0.0
01/10:00am 17.3 14.6 11.8 70 3.0 S 17 20 9 11 1008.0 1007.9 0.0
01/09:30am 16.7 13.6 11.6 72 2.8 S 19 22 10 12 1008.2 1008.1 0.0
01/09:00am 15.4 12.9 12.2 81 1.8 S 17 20 9 11 1008.3 1008.2 0.0
01/08:30am 14.3 12.4 11.8 85 1.4 S 13 17 7 9 1008.5 1008.4 0.0
01/08:00am 13.0 11.4 11.7 92 0.7 S 11 13 6 7 1008.5 1008.4 0.0
01/07:30am 12.0 11.0 11.1 94 0.5 SSE 7 9 4 5 1008.5 1008.4 0.0
01/07:00am 11.5 10.0 10.6 94 0.5 S 9 13 5 7 1008.7 1008.6 0.0
01/06:30am 11.1 8.8 10.5 96 0.3 S 13 17 7 9 1008.7 1008.6 0.0
01/06:00am 9.9 8.0 9.1 95 0.4 S 9 13 5 7 1008.8 1008.7 0.0
01/05:30am 10.2 8.4 9.4 95 0.4 SSE 9 13 5 7 1008.8 1008.7 0.0
01/05:00am 10.4 8.6 9.6 95 0.4 S 9 11 5 6 1008.7 1008.6 0.0

Other Formats:

Comma delimited format used in spreadsheet applications
http://www.bom.gov.au/fwo/IDT60801/IDT60801.95966.axf

JavaScript Object Notation format (JSON) in row-major order
http://www.bom.gov.au/fwo/IDT60801/IDT60801.95966.json